sensor_id;sensor_type;location;lat;lon;timestamp;temperature;humidity
22633;DHT22;11483;55.828;37.488;2023-01-23T00:01:49;-0.30;99.90
22633;DHT22;11483;55.828;37.488;2023-01-23T00:04:15;-0.20;99.90
22633;DHT22;11483;55.828;37.488;2023-01-23T00:06:41;-0.20;99.90
22633;DHT22;11483;55.828;37.488;2023-01-23T00:09:07;-0.30;99.90
22633;DHT22;11483;55.828;37.488;2023-01-23T00:11:33;-0.30;99.90
22633;DHT22;11483;55.828;37.488;2023-01-23T00:14:00;-0.40;99.90
22633;DHT22;11483;55.828;37.488;2023-01-23T00:16:29;-0.50;99.90
22633;DHT22;11483;55.828;37.488;2023-01-23T00:18:56;-0.50;99.90
22633;DHT22;11483;55.828;37.488;2023-01-23T00:21:26;-0.50;99.90
22633;DHT22;11483;55.828;37.488;2023-01-23T00:23:54;-0.50;99.90
22633;DHT22;11483;55.828;37.488;2023-01-23T00:26:26;-0.50;99.90
22633;DHT22;11483;55.828;37.488;2023-01-23T00:28:53;-0.50;99.90
22633;DHT22;11483;55.828;37.488;2023-01-23T00:31:25;-0.60;99.90
22633;DHT22;11483;55.828;37.488;2023-01-23T00:33:59;-0.50;99.90
22633;DHT22;11483;55.828;37.488;2023-01-23T00:36:32;-0.50;99.90
22633;DHT22;11483;55.828;37.488;2023-01-23T00:38:58;-0.50;99.90
22633;DHT22;11483;55.828;37.488;2023-01-23T00:41:24;-0.60;99.90
22633;DHT22;11483;55.828;37.488;2023-01-23T00:43:50;-0.50;99.90
22633;DHT22;11483;55.828;37.488;2023-01-23T00:46:20;-0.60;99.90
22633;DHT22;11483;55.828;37.488;2023-01-23T00:48:46;-0.60;99.90
22633;DHT22;11483;55.828;37.488;2023-01-23T00:51:12;-0.60;99.90
22633;DHT22;11483;55.828;37.488;2023-01-23T00:53:38;-0.60;99.90
22633;DHT22;11483;55.828;37.488;2023-01-23T00:56:05;-0.60;99.90
22633;DHT22;11483;55.828;37.488;2023-01-23T00:58:31;-0.60;99.90
22633;DHT22;11483;55.828;37.488;2023-01-23T01:00:57;-0.60;99.90
22633;DHT22;11483;55.828;37.488;2023-01-23T01:03:23;-0.70;99.90
22633;DHT22;11483;55.828;37.488;2023-01-23T01:05:50;-0.70;99.90
22633;DHT22;11483;55.828;37.488;2023-01-23T01:08:16;-0.80;99.90
22633;DHT22;11483;55.828;37.488;2023-01-23T01:10:42;-0.70;99.90
22633;DHT22;11483;55.828;37.488;2023-01-23T01:13:08;-0.80;99.90
22633;DHT22;11483;55.828;37.488;2023-01-23T01:15:36;-0.80;99.90
22633;DHT22;11483;55.828;37.488;2023-01-23T01:18:02;-0.80;99.90
22633;DHT22;11483;55.828;37.488;2023-01-23T01:20:28;-0.70;99.90
22633;DHT22;11483;55.828;37.488;2023-01-23T01:22:57;-0.70;99.90
22633;DHT22;11483;55.828;37.488;2023-01-23T01:25:24;-0.70;99.90
22633;DHT22;11483;55.828;37.488;2023-01-23T01:27:49;-0.70;99.90
22633;DHT22;11483;55.828;37.488;2023-01-23T01:30:16;-0.80;99.90
22633;DHT22;11483;55.828;37.488;2023-01-23T01:32:43;-0.90;99.90
22633;DHT22;11483;55.828;37.488;2023-01-23T01:35:12;-0.80;99.90
22633;DHT22;11483;55.828;37.488;2023-01-23T01:37:39;-0.90;99.90
22633;DHT22;11483;55.828;37.488;2023-01-23T01:40:07;-0.90;99.90
22633;DHT22;11483;55.828;37.488;2023-01-23T01:42:43;-0.80;99.90
22633;DHT22;11483;55.828;37.488;2023-01-23T01:48:13;-0.80;99.90
22633;DHT22;11483;55.828;37.488;2023-01-23T01:50:40;-0.90;99.90
22633;DHT22;11483;55.828;37.488;2023-01-23T01:53:06;-0.90;99.90
22633;DHT22;11483;55.828;37.488;2023-01-23T01:55:31;-0.90;99.90
22633;DHT22;11483;55.828;37.488;2023-01-23T01:57:58;-0.90;99.90
22633;DHT22;11483;55.828;37.488;2023-01-23T02:00:25;-0.90;99.90
22633;DHT22;11483;55.828;37.488;2023-01-23T02:02:58;-0.80;99.90
22633;DHT22;11483;55.828;37.488;2023-01-23T02:05:42;-0.80;99.90
22633;DHT22;11483;55.828;37.488;2023-01-23T02:10:59;-1.00;99.90
22633;DHT22;11483;55.828;37.488;2023-01-23T02:13:30;-1.10;99.90
22633;DHT22;11483;55.828;37.488;2023-01-23T02:16:10;-1.10;99.90
22633;DHT22;11483;55.828;37.488;2023-01-23T02:18:40;-1.10;99.90
22633;DHT22;11483;55.828;37.488;2023-01-23T02:21:10;-1.00;99.90
22633;DHT22;11483;55.828;37.488;2023-01-23T02:23:53;-1.00;99.90
22633;DHT22;11483;55.828;37.488;2023-01-23T02:26:23;-0.90;99.90
22633;DHT22;11483;55.828;37.488;2023-01-23T02:28:52;-0.90;99.90
22633;DHT22;11483;55.828;37.488;2023-01-23T02:31:20;-0.90;99.90
22633;DHT22;11483;55.828;37.488;2023-01-23T02:33:54;-0.90;99.90
22633;DHT22;11483;55.828;37.488;2023-01-23T02:36:23;-0.80;99.90
22633;DHT22;11483;55.828;37.488;2023-01-23T02:38:55;-0.80;99.90
22633;DHT22;11483;55.828;37.488;2023-01-23T02:41:28;-0.80;99.90
22633;DHT22;11483;55.828;37.488;2023-01-23T02:43:58;-0.80;99.90
22633;DHT22;11483;55.828;37.488;2023-01-23T02:46:24;-0.80;99.90
22633;DHT22;11483;55.828;37.488;2023-01-23T02:48:51;-0.70;99.90
22633;DHT22;11483;55.828;37.488;2023-01-23T02:51:17;-0.70;99.90
22633;DHT22;11483;55.828;37.488;2023-01-23T02:53:43;-0.80;99.90
22633;DHT22;11483;55.828;37.488;2023-01-23T02:56:09;-0.80;99.90
22633;DHT22;11483;55.828;37.488;2023-01-23T02:58:35;-0.80;99.90
22633;DHT22;11483;55.828;37.488;2023-01-23T03:01:20;-0.80;99.90
22633;DHT22;11483;55.828;37.488;2023-01-23T03:03:46;-0.90;99.90
22633;DHT22;11483;55.828;37.488;2023-01-23T03:06:16;-0.90;99.90
22633;DHT22;11483;55.828;37.488;2023-01-23T03:08:41;-0.90;99.90
22633;DHT22;11483;55.828;37.488;2023-01-23T03:11:12;-0.90;99.90
22633;DHT22;11483;55.828;37.488;2023-01-23T03:13:39;-0.90;99.90
22633;DHT22;11483;55.828;37.488;2023-01-23T03:16:05;-0.90;99.90
22633;DHT22;11483;55.828;37.488;2023-01-23T03:18:32;-0.90;99.90
22633;DHT22;11483;55.828;37.488;2023-01-23T03:21:04;-1.00;99.90
22633;DHT22;11483;55.828;37.488;2023-01-23T03:23:30;-1.10;99.90
22633;DHT22;11483;55.828;37.488;2023-01-23T03:25:56;-1.10;99.90
22633;DHT22;11483;55.828;37.488;2023-01-23T03:28:26;-1.20;99.90
22633;DHT22;11483;55.828;37.488;2023-01-23T03:31:11;-1.20;99.90
22633;DHT22;11483;55.828;37.488;2023-01-23T03:33:38;-1.20;99.90
22633;DHT22;11483;55.828;37.488;2023-01-23T03:36:10;-1.30;99.90
22633;DHT22;11483;55.828;37.488;2023-01-23T03:38:37;-1.30;99.90
22633;DHT22;11483;55.828;37.488;2023-01-23T03:41:04;-1.40;99.90
22633;DHT22;11483;55.828;37.488;2023-01-23T03:43:48;-1.40;99.90
22633;DHT22;11483;55.828;37.488;2023-01-23T03:46:14;-1.50;99.90
22633;DHT22;11483;55.828;37.488;2023-01-23T03:48:40;-1.50;99.90
22633;DHT22;11483;55.828;37.488;2023-01-23T03:51:05;-1.40;99.90
22633;DHT22;11483;55.828;37.488;2023-01-23T03:53:32;-1.40;99.90
22633;DHT22;11483;55.828;37.488;2023-01-23T03:55:58;-1.30;99.90
22633;DHT22;11483;55.828;37.488;2023-01-23T03:58:24;-1.20;99.90
22633;DHT22;11483;55.828;37.488;2023-01-23T04:00:49;-1.20;99.90
22633;DHT22;11483;55.828;37.488;2023-01-23T04:03:15;-1.20;99.90
22633;DHT22;11483;55.828;37.488;2023-01-23T04:05:41;-1.10;99.90
22633;DHT22;11483;55.828;37.488;2023-01-23T04:08:07;-1.10;99.90
22633;DHT22;11483;55.828;37.488;2023-01-23T04:10:33;-1.10;99.90
22633;DHT22;11483;55.828;37.488;2023-01-23T04:12:59;-1.10;99.90
22633;DHT22;11483;55.828;37.488;2023-01-23T04:15:25;-1.10;99.90
22633;DHT22;11483;55.828;37.488;2023-01-23T04:17:50;-1.10;99.90
22633;DHT22;11483;55.828;37.488;2023-01-23T04:20:16;-1.00;99.90
22633;DHT22;11483;55.828;37.488;2023-01-23T04:22:44;-1.00;99.90
22633;DHT22;11483;55.828;37.488;2023-01-23T04:25:10;-0.90;99.90
22633;DHT22;11483;55.828;37.488;2023-01-23T04:27:36;-0.90;99.90
22633;DHT22;11483;55.828;37.488;2023-01-23T04:30:02;-1.00;99.90
22633;DHT22;11483;55.828;37.488;2023-01-23T04:32:28;-1.00;99.90
22633;DHT22;11483;55.828;37.488;2023-01-23T04:34:54;-0.90;99.90
22633;DHT22;11483;55.828;37.488;2023-01-23T04:37:20;-0.90;99.90
22633;DHT22;11483;55.828;37.488;2023-01-23T04:39:46;-0.90;99.90
22633;DHT22;11483;55.828;37.488;2023-01-23T04:42:11;-0.90;99.90
22633;DHT22;11483;55.828;37.488;2023-01-23T04:44:37;-1.00;99.90
22633;DHT22;11483;55.828;37.488;2023-01-23T04:47:03;-1.10;99.90
22633;DHT22;11483;55.828;37.488;2023-01-23T04:49:29;-1.20;99.90
22633;DHT22;11483;55.828;37.488;2023-01-23T04:51:55;-1.20;99.90
22633;DHT22;11483;55.828;37.488;2023-01-23T04:54:21;-1.20;99.90
22633;DHT22;11483;55.828;37.488;2023-01-23T04:56:48;-1.30;99.90
22633;DHT22;11483;55.828;37.488;2023-01-23T04:59:14;-1.30;99.90
22633;DHT22;11483;55.828;37.488;2023-01-23T05:01:41;-1.40;99.90
22633;DHT22;11483;55.828;37.488;2023-01-23T05:04:07;-1.30;99.90
22633;DHT22;11483;55.828;37.488;2023-01-23T05:06:33;-1.30;99.90
22633;DHT22;11483;55.828;37.488;2023-01-23T05:08:59;-1.20;99.90
22633;DHT22;11483;55.828;37.488;2023-01-23T05:11:25;-1.20;99.90
22633;DHT22;11483;55.828;37.488;2023-01-23T05:13:51;-1.10;99.90
22633;DHT22;11483;55.828;37.488;2023-01-23T05:16:17;-1.10;99.90
22633;DHT22;11483;55.828;37.488;2023-01-23T05:18:42;-1.00;99.90
22633;DHT22;11483;55.828;37.488;2023-01-23T05:21:08;-1.00;99.90
22633;DHT22;11483;55.828;37.488;2023-01-23T05:23:36;-1.10;99.90
22633;DHT22;11483;55.828;37.488;2023-01-23T05:26:02;-1.10;99.90
22633;DHT22;11483;55.828;37.488;2023-01-23T05:28:28;-1.10;99.90
22633;DHT22;11483;55.828;37.488;2023-01-23T05:30:54;-1.10;99.90
22633;DHT22;11483;55.828;37.488;2023-01-23T05:33:20;-1.10;99.90
22633;DHT22;11483;55.828;37.488;2023-01-23T05:35:46;-1.00;99.90
22633;DHT22;11483;55.828;37.488;2023-01-23T05:38:12;-1.00;99.90
22633;DHT22;11483;55.828;37.488;2023-01-23T05:40:38;-0.90;99.90
22633;DHT22;11483;55.828;37.488;2023-01-23T05:43:04;-0.90;99.90
22633;DHT22;11483;55.828;37.488;2023-01-23T05:45:31;-0.90;99.90
22633;DHT22;11483;55.828;37.488;2023-01-23T05:47:59;-0.90;99.90
22633;DHT22;11483;55.828;37.488;2023-01-23T05:50:25;-0.90;99.90
22633;DHT22;11483;55.828;37.488;2023-01-23T05:52:50;-0.90;99.90
22633;DHT22;11483;55.828;37.488;2023-01-23T05:55:16;-1.00;99.90
22633;DHT22;11483;55.828;37.488;2023-01-23T05:57:42;-0.90;99.90
22633;DHT22;11483;55.828;37.488;2023-01-23T06:00:11;-0.90;99.90
22633;DHT22;11483;55.828;37.488;2023-01-23T06:02:37;-0.90;99.90
22633;DHT22;11483;55.828;37.488;2023-01-23T06:05:03;-0.90;99.90
22633;DHT22;11483;55.828;37.488;2023-01-23T06:07:29;-0.90;99.90
22633;DHT22;11483;55.828;37.488;2023-01-23T06:10:04;-1.00;99.90
22633;DHT22;11483;55.828;37.488;2023-01-23T06:12:30;-1.00;99.90
22633;DHT22;11483;55.828;37.488;2023-01-23T06:14:57;-1.00;99.90
22633;DHT22;11483;55.828;37.488;2023-01-23T06:17:23;-1.00;99.90
22633;DHT22;11483;55.828;37.488;2023-01-23T06:19:48;-1.00;99.90
22633;DHT22;11483;55.828;37.488;2023-01-23T06:22:14;-1.00;99.90
22633;DHT22;11483;55.828;37.488;2023-01-23T06:24:40;-1.00;99.90
22633;DHT22;11483;55.828;37.488;2023-01-23T06:27:06;-1.00;99.90
22633;DHT22;11483;55.828;37.488;2023-01-23T06:29:35;-1.00;99.90
22633;DHT22;11483;55.828;37.488;2023-01-23T06:32:01;-0.90;99.90
22633;DHT22;11483;55.828;37.488;2023-01-23T06:34:27;-0.90;99.90
22633;DHT22;11483;55.828;37.488;2023-01-23T06:36:53;-1.00;99.90
22633;DHT22;11483;55.828;37.488;2023-01-23T06:39:19;-0.90;99.90
22633;DHT22;11483;55.828;37.488;2023-01-23T06:41:45;-1.00;99.90
22633;DHT22;11483;55.828;37.488;2023-01-23T06:44:11;-1.10;99.90
22633;DHT22;11483;55.828;37.488;2023-01-23T06:46:36;-1.10;99.90
22633;DHT22;11483;55.828;37.488;2023-01-23T06:49:03;-1.20;99.90
22633;DHT22;11483;55.828;37.488;2023-01-23T06:51:29;-1.20;99.90
22633;DHT22;11483;55.828;37.488;2023-01-23T06:53:55;-1.10;99.90
22633;DHT22;11483;55.828;37.488;2023-01-23T06:56:21;-1.20;99.90
22633;DHT22;11483;55.828;37.488;2023-01-23T06:58:47;-1.20;99.90
22633;DHT22;11483;55.828;37.488;2023-01-23T07:01:16;-1.10;99.90
22633;DHT22;11483;55.828;37.488;2023-01-23T07:03:43;-1.10;99.90
22633;DHT22;11483;55.828;37.488;2023-01-23T07:06:13;-1.00;99.90
22633;DHT22;11483;55.828;37.488;2023-01-23T07:08:40;-1.00;99.90
22633;DHT22;11483;55.828;37.488;2023-01-23T07:11:06;-1.00;99.90
22633;DHT22;11483;55.828;37.488;2023-01-23T07:13:32;-0.90;99.90
22633;DHT22;11483;55.828;37.488;2023-01-23T07:15:59;-0.90;99.90
22633;DHT22;11483;55.828;37.488;2023-01-23T07:18:25;-1.00;99.90
22633;DHT22;11483;55.828;37.488;2023-01-23T07:20:53;-1.00;99.90
22633;DHT22;11483;55.828;37.488;2023-01-23T07:23:20;-1.10;99.90
22633;DHT22;11483;55.828;37.488;2023-01-23T07:25:46;-1.10;99.90
22633;DHT22;11483;55.828;37.488;2023-01-23T07:28:12;-1.10;99.90
22633;DHT22;11483;55.828;37.488;2023-01-23T07:30:38;-1.10;99.90
22633;DHT22;11483;55.828;37.488;2023-01-23T07:33:04;-1.00;99.90
22633;DHT22;11483;55.828;37.488;2023-01-23T07:35:31;-1.00;99.90
22633;DHT22;11483;55.828;37.488;2023-01-23T07:37:57;-1.00;99.90
22633;DHT22;11483;55.828;37.488;2023-01-23T07:40:23;-1.00;99.90
22633;DHT22;11483;55.828;37.488;2023-01-23T07:42:49;-1.00;99.90
22633;DHT22;11483;55.828;37.488;2023-01-23T07:45:15;-1.10;99.90
22633;DHT22;11483;55.828;37.488;2023-01-23T07:47:41;-1.10;99.90
22633;DHT22;11483;55.828;37.488;2023-01-23T07:50:08;-1.00;99.90
22633;DHT22;11483;55.828;37.488;2023-01-23T07:52:35;-1.10;99.90
22633;DHT22;11483;55.828;37.488;2023-01-23T07:55:01;-1.10;99.90
22633;DHT22;11483;55.828;37.488;2023-01-23T07:57:27;-1.20;99.90
22633;DHT22;11483;55.828;37.488;2023-01-23T07:59:53;-1.20;99.90
22633;DHT22;11483;55.828;37.488;2023-01-23T08:02:19;-1.30;99.90
22633;DHT22;11483;55.828;37.488;2023-01-23T08:04:45;-1.30;99.90
22633;DHT22;11483;55.828;37.488;2023-01-23T08:07:11;-1.40;99.90
22633;DHT22;11483;55.828;37.488;2023-01-23T08:09:37;-1.40;99.90
22633;DHT22;11483;55.828;37.488;2023-01-23T08:12:03;-1.20;99.90
22633;DHT22;11483;55.828;37.488;2023-01-23T08:14:32;-1.40;99.90
22633;DHT22;11483;55.828;37.488;2023-01-23T08:16:58;-1.40;99.90
22633;DHT22;11483;55.828;37.488;2023-01-23T08:19:26;-1.50;99.90
22633;DHT22;11483;55.828;37.488;2023-01-23T08:21:52;-1.60;99.90
22633;DHT22;11483;55.828;37.488;2023-01-23T08:24:19;-1.50;99.90
22633;DHT22;11483;55.828;37.488;2023-01-23T08:26:44;-1.40;99.90
22633;DHT22;11483;55.828;37.488;2023-01-23T08:29:10;-1.50;99.90
22633;DHT22;11483;55.828;37.488;2023-01-23T08:31:39;-1.40;99.90
22633;DHT22;11483;55.828;37.488;2023-01-23T08:34:05;-1.40;99.90
22633;DHT22;11483;55.828;37.488;2023-01-23T08:36:31;-1.40;99.90
22633;DHT22;11483;55.828;37.488;2023-01-23T08:38:58;-1.40;99.90
22633;DHT22;11483;55.828;37.488;2023-01-23T08:41:24;-1.40;99.90
22633;DHT22;11483;55.828;37.488;2023-01-23T08:43:50;-1.50;99.90
22633;DHT22;11483;55.828;37.488;2023-01-23T08:46:16;-1.40;99.90
22633;DHT22;11483;55.828;37.488;2023-01-23T08:48:42;-1.50;99.90
22633;DHT22;11483;55.828;37.488;2023-01-23T08:51:10;-1.70;99.90
22633;DHT22;11483;55.828;37.488;2023-01-23T08:53:37;-1.50;99.90
22633;DHT22;11483;55.828;37.488;2023-01-23T08:56:17;-1.50;99.90
22633;DHT22;11483;55.828;37.488;2023-01-23T08:58:44;-1.50;99.90
22633;DHT22;11483;55.828;37.488;2023-01-23T09:01:12;-1.40;99.90
22633;DHT22;11483;55.828;37.488;2023-01-23T09:03:38;-1.50;99.90
22633;DHT22;11483;55.828;37.488;2023-01-23T09:06:04;-1.50;99.90
22633;DHT22;11483;55.828;37.488;2023-01-23T09:08:31;-1.50;99.90
22633;DHT22;11483;55.828;37.488;2023-01-23T09:11:02;-1.50;99.90
22633;DHT22;11483;55.828;37.488;2023-01-23T09:13:28;-1.50;99.90
22633;DHT22;11483;55.828;37.488;2023-01-23T09:15:54;-1.50;99.90
22633;DHT22;11483;55.828;37.488;2023-01-23T09:18:20;-1.60;99.90
22633;DHT22;11483;55.828;37.488;2023-01-23T09:20:53;-1.60;99.90
22633;DHT22;11483;55.828;37.488;2023-01-23T09:23:20;-1.60;99.90
22633;DHT22;11483;55.828;37.488;2023-01-23T09:25:46;-1.60;99.90
22633;DHT22;11483;55.828;37.488;2023-01-23T09:28:12;-1.60;99.90
22633;DHT22;11483;55.828;37.488;2023-01-23T09:30:38;-1.60;99.90
22633;DHT22;11483;55.828;37.488;2023-01-23T09:33:05;-1.60;99.90
22633;DHT22;11483;55.828;37.488;2023-01-23T09:35:31;-1.60;99.90
22633;DHT22;11483;55.828;37.488;2023-01-23T09:37:57;-1.60;99.90
22633;DHT22;11483;55.828;37.488;2023-01-23T09:40:34;-1.60;99.90
22633;DHT22;11483;55.828;37.488;2023-01-23T09:45:34;-1.60;99.90
22633;DHT22;11483;55.828;37.488;2023-01-23T09:48:25;-1.60;99.90
22633;DHT22;11483;55.828;37.488;2023-01-23T09:51:05;-1.60;99.90
22633;DHT22;11483;55.828;37.488;2023-01-23T09:53:37;-1.60;99.90
22633;DHT22;11483;55.828;37.488;2023-01-23T09:58:35;-1.70;99.90
22633;DHT22;11483;55.828;37.488;2023-01-23T10:01:02;-1.60;99.90
22633;DHT22;11483;55.828;37.488;2023-01-23T10:03:29;-1.70;99.90
22633;DHT22;11483;55.828;37.488;2023-01-23T10:12:04;-1.70;99.90
22633;DHT22;11483;55.828;37.488;2023-01-23T10:14:37;-1.70;99.90
22633;DHT22;11483;55.828;37.488;2023-01-23T10:20:13;-1.80;99.90
22633;DHT22;11483;55.828;37.488;2023-01-23T10:25:27;-1.80;99.90
22633;DHT22;11483;55.828;37.488;2023-01-23T10:27:58;-1.80;99.90
22633;DHT22;11483;55.828;37.488;2023-01-23T10:30:31;-1.80;99.90
22633;DHT22;11483;55.828;37.488;2023-01-23T10:33:18;-1.80;99.90
22633;DHT22;11483;55.828;37.488;2023-01-23T10:35:48;-1.70;99.90
22633;DHT22;11483;55.828;37.488;2023-01-23T10:38:30;-1.70;99.90
22633;DHT22;11483;55.828;37.488;2023-01-23T10:40:57;-1.70;99.90
22633;DHT22;11483;55.828;37.488;2023-01-23T10:43:51;-1.60;99.90
22633;DHT22;11483;55.828;37.488;2023-01-23T10:46:28;-1.60;99.90
22633;DHT22;11483;55.828;37.488;2023-01-23T10:48:55;-1.60;99.90
22633;DHT22;11483;55.828;37.488;2023-01-23T10:51:29;-1.50;99.90
22633;DHT22;11483;55.828;37.488;2023-01-23T10:54:17;-1.50;99.90
22633;DHT22;11483;55.828;37.488;2023-01-23T11:02:16;-1.40;99.90
22633;DHT22;11483;55.828;37.488;2023-01-23T11:04:45;-1.40;99.90
22633;DHT22;11483;55.828;37.488;2023-01-23T11:07:19;-1.40;99.90
22633;DHT22;11483;55.828;37.488;2023-01-23T11:09:56;-1.30;99.90
22633;DHT22;11483;55.828;37.488;2023-01-23T11:17:48;-1.30;99.90
22633;DHT22;11483;55.828;37.488;2023-01-23T11:20:32;-1.20;99.90
22633;DHT22;11483;55.828;37.488;2023-01-23T11:23:16;-1.20;99.90
22633;DHT22;11483;55.828;37.488;2023-01-23T11:25:50;-1.20;99.90
22633;DHT22;11483;55.828;37.488;2023-01-23T11:31:10;-1.20;99.90
22633;DHT22;11483;55.828;37.488;2023-01-23T11:36:23;-1.30;99.90
22633;DHT22;11483;55.828;37.488;2023-01-23T11:41:44;-1.20;99.90
22633;DHT22;11483;55.828;37.488;2023-01-23T11:44:17;-1.10;99.90
22633;DHT22;11483;55.828;37.488;2023-01-23T11:49:58;-1.00;99.90
22633;DHT22;11483;55.828;37.488;2023-01-23T12:03:44;-1.00;99.90
22633;DHT22;11483;55.828;37.488;2023-01-23T12:11:25;-1.00;99.90
22633;DHT22;11483;55.828;37.488;2023-01-23T12:14:15;-1.10;99.90
22633;DHT22;11483;55.828;37.488;2023-01-23T12:27:45;-1.00;99.90
22633;DHT22;11483;55.828;37.488;2023-01-23T12:39:08;-1.00;99.90
22633;DHT22;11483;55.828;37.488;2023-01-23T12:41:55;-1.00;99.90
22633;DHT22;11483;55.828;37.488;2023-01-23T12:47:33;-1.00;99.90
22633;DHT22;11483;55.828;37.488;2023-01-23T12:50:15;-1.00;99.90
22633;DHT22;11483;55.828;37.488;2023-01-23T12:52:56;-1.10;99.90
22633;DHT22;11483;55.828;37.488;2023-01-23T12:58:15;-1.10;99.90
22633;DHT22;11483;55.828;37.488;2023-01-23T13:00:48;-1.10;99.90
22633;DHT22;11483;55.828;37.488;2023-01-23T13:09:01;-1.00;99.90
22633;DHT22;11483;55.828;37.488;2023-01-23T13:14:38;-1.00;99.90
22633;DHT22;11483;55.828;37.488;2023-01-23T13:19:51;-1.10;99.90
22633;DHT22;11483;55.828;37.488;2023-01-23T13:22:36;-1.00;99.90
22633;DHT22;11483;55.828;37.488;2023-01-23T13:25:12;-1.00;99.90
22633;DHT22;11483;55.828;37.488;2023-01-23T13:27:49;-1.00;99.90
22633;DHT22;11483;55.828;37.488;2023-01-23T13:32:56;-0.90;99.90
22633;DHT22;11483;55.828;37.488;2023-01-23T13:43:42;-1.00;99.90
22633;DHT22;11483;55.828;37.488;2023-01-23T13:52:00;-0.90;99.90
22633;DHT22;11483;55.828;37.488;2023-01-23T13:54:48;-0.90;99.90
22633;DHT22;11483;55.828;37.488;2023-01-23T13:57:33;-0.90;99.90
22633;DHT22;11483;55.828;37.488;2023-01-23T14:00:00;-0.90;99.90
22633;DHT22;11483;55.828;37.488;2023-01-23T14:02:32;-0.90;99.90
22633;DHT22;11483;55.828;37.488;2023-01-23T14:05:25;-0.90;99.90
22633;DHT22;11483;55.828;37.488;2023-01-23T14:08:00;-0.80;99.90
22633;DHT22;11483;55.828;37.488;2023-01-23T14:10:35;-0.90;99.90
22633;DHT22;11483;55.828;37.488;2023-01-23T14:13:06;-0.90;99.90
22633;DHT22;11483;55.828;37.488;2023-01-23T14:15:34;-0.90;99.90
22633;DHT22;11483;55.828;37.488;2023-01-23T14:18:41;-0.90;99.90
22633;DHT22;11483;55.828;37.488;2023-01-23T14:23:55;-0.90;99.90
22633;DHT22;11483;55.828;37.488;2023-01-23T14:26:31;-0.90;99.90
22633;DHT22;11483;55.828;37.488;2023-01-23T14:29:03;-0.90;99.90
22633;DHT22;11483;55.828;37.488;2023-01-23T14:31:36;-0.80;99.90
22633;DHT22;11483;55.828;37.488;2023-01-23T14:34:04;-0.80;99.90
22633;DHT22;11483;55.828;37.488;2023-01-23T14:36:33;-0.80;99.90
22633;DHT22;11483;55.828;37.488;2023-01-23T14:39:01;-0.90;99.90
22633;DHT22;11483;55.828;37.488;2023-01-23T14:41:38;-0.80;99.90
22633;DHT22;11483;55.828;37.488;2023-01-23T14:44:08;-0.70;99.90
22633;DHT22;11483;55.828;37.488;2023-01-23T14:46:38;-0.70;99.90
22633;DHT22;11483;55.828;37.488;2023-01-23T14:49:07;-0.70;99.90
22633;DHT22;11483;55.828;37.488;2023-01-23T14:51:34;-0.80;99.90
22633;DHT22;11483;55.828;37.488;2023-01-23T14:54:15;-0.80;99.90
22633;DHT22;11483;55.828;37.488;2023-01-23T14:56:43;-0.80;99.90
22633;DHT22;11483;55.828;37.488;2023-01-23T14:59:37;-0.70;99.90
22633;DHT22;11483;55.828;37.488;2023-01-23T15:05:20;-0.80;99.90
22633;DHT22;11483;55.828;37.488;2023-01-23T15:13:23;-0.80;99.90
22633;DHT22;11483;55.828;37.488;2023-01-23T15:16:01;-0.80;99.90
22633;DHT22;11483;55.828;37.488;2023-01-23T15:18:30;-0.80;99.90
22633;DHT22;11483;55.828;37.488;2023-01-23T15:21:07;-0.80;99.90
22633;DHT22;11483;55.828;37.488;2023-01-23T15:23:40;-0.80;99.90
22633;DHT22;11483;55.828;37.488;2023-01-23T15:29:18;-0.80;99.90
22633;DHT22;11483;55.828;37.488;2023-01-23T15:31:48;-0.70;99.90
22633;DHT22;11483;55.828;37.488;2023-01-23T15:36:52;-0.70;99.90
22633;DHT22;11483;55.828;37.488;2023-01-23T15:42:00;-0.70;99.90
22633;DHT22;11483;55.828;37.488;2023-01-23T15:44:29;-0.70;99.90
22633;DHT22;11483;55.828;37.488;2023-01-23T15:46:56;-0.70;99.90
22633;DHT22;11483;55.828;37.488;2023-01-23T15:49:27;-0.70;99.90
22633;DHT22;11483;55.828;37.488;2023-01-23T15:51:57;-0.60;99.90
22633;DHT22;11483;55.828;37.488;2023-01-23T15:54:32;-0.60;99.90
22633;DHT22;11483;55.828;37.488;2023-01-23T15:56:58;-0.60;99.90
22633;DHT22;11483;55.828;37.488;2023-01-23T15:59:24;-0.70;99.90
22633;DHT22;11483;55.828;37.488;2023-01-23T16:01:51;-0.70;99.90
22633;DHT22;11483;55.828;37.488;2023-01-23T16:04:17;-0.70;99.90
22633;DHT22;11483;55.828;37.488;2023-01-23T16:06:44;-0.70;99.90
22633;DHT22;11483;55.828;37.488;2023-01-23T16:09:25;-0.70;99.90
22633;DHT22;11483;55.828;37.488;2023-01-23T16:11:52;-0.70;99.90
22633;DHT22;11483;55.828;37.488;2023-01-23T16:14:18;-0.70;99.90
22633;DHT22;11483;55.828;37.488;2023-01-23T16:16:44;-0.70;99.90
22633;DHT22;11483;55.828;37.488;2023-01-23T16:19:10;-0.70;99.90
22633;DHT22;11483;55.828;37.488;2023-01-23T16:21:37;-0.70;99.90
22633;DHT22;11483;55.828;37.488;2023-01-23T16:24:04;-0.70;99.90
22633;DHT22;11483;55.828;37.488;2023-01-23T16:26:30;-0.70;99.90
22633;DHT22;11483;55.828;37.488;2023-01-23T16:28:56;-0.70;99.90
22633;DHT22;11483;55.828;37.488;2023-01-23T16:31:22;-0.70;99.90
22633;DHT22;11483;55.828;37.488;2023-01-23T16:33:48;-0.70;99.90
22633;DHT22;11483;55.828;37.488;2023-01-23T16:36:16;-0.60;99.90
22633;DHT22;11483;55.828;37.488;2023-01-23T16:38:47;-0.70;99.90
22633;DHT22;11483;55.828;37.488;2023-01-23T16:41:14;-0.70;99.90
22633;DHT22;11483;55.828;37.488;2023-01-23T16:43:39;-0.70;99.90
22633;DHT22;11483;55.828;37.488;2023-01-23T16:46:05;-0.70;99.90
22633;DHT22;11483;55.828;37.488;2023-01-23T16:48:31;-0.70;99.90
22633;DHT22;11483;55.828;37.488;2023-01-23T16:53:33;-0.70;99.90
22633;DHT22;11483;55.828;37.488;2023-01-23T16:56:01;-0.60;99.90
22633;DHT22;11483;55.828;37.488;2023-01-23T16:58:34;-0.60;99.90
22633;DHT22;11483;55.828;37.488;2023-01-23T17:01:06;-0.60;99.90
22633;DHT22;11483;55.828;37.488;2023-01-23T17:03:35;-0.70;99.90
22633;DHT22;11483;55.828;37.488;2023-01-23T17:06:02;-0.60;99.90
22633;DHT22;11483;55.828;37.488;2023-01-23T17:08:28;-0.60;99.90
22633;DHT22;11483;55.828;37.488;2023-01-23T17:10:57;-0.60;99.90
22633;DHT22;11483;55.828;37.488;2023-01-23T17:13:25;-0.60;99.90
22633;DHT22;11483;55.828;37.488;2023-01-23T17:15:53;-0.60;99.90
22633;DHT22;11483;55.828;37.488;2023-01-23T17:18:26;-0.60;99.90
22633;DHT22;11483;55.828;37.488;2023-01-23T17:20:53;-0.70;99.90
22633;DHT22;11483;55.828;37.488;2023-01-23T17:23:19;-0.70;99.90
22633;DHT22;11483;55.828;37.488;2023-01-23T17:25:45;-0.70;99.90
22633;DHT22;11483;55.828;37.488;2023-01-23T17:28:15;-0.70;99.90
22633;DHT22;11483;55.828;37.488;2023-01-23T17:30:54;-0.70;99.90
22633;DHT22;11483;55.828;37.488;2023-01-23T17:33:25;-0.70;99.90
22633;DHT22;11483;55.828;37.488;2023-01-23T17:35:52;-0.70;99.90
22633;DHT22;11483;55.828;37.488;2023-01-23T17:38:21;-0.70;99.90
22633;DHT22;11483;55.828;37.488;2023-01-23T17:40:57;-0.70;99.90
22633;DHT22;11483;55.828;37.488;2023-01-23T17:50:44;-0.70;99.90
22633;DHT22;11483;55.828;37.488;2023-01-23T17:54:42;-0.70;99.90